sensor_id;sensor_type;location;lat;lon;timestamp;pressure;altitude;pressure_sealevel;temperature;humidity
41898;BME280;27576;53.366;-1.498;2024-02-21T00:01:24;100286.63;;;6.73;100.00
41898;BME280;27576;53.366;-1.498;2024-02-21T00:03:50;100276.25;;;6.70;100.00
41898;BME280;27576;53.366;-1.498;2024-02-21T00:06:15;100252.88;;;6.62;100.00
41898;BME280;27576;53.366;-1.498;2024-02-21T00:08:41;100258.88;;;6.63;100.00
41898;BME280;27576;53.366;-1.498;2024-02-21T00:11:06;100238.16;;;6.57;100.00
41898;BME280;27576;53.366;-1.498;2024-02-21T00:13:32;100229.69;;;6.61;100.00
41898;BME280;27576;53.366;-1.498;2024-02-21T00:15:57;100234.88;;;6.64;100.00
41898;BME280;27576;53.366;-1.498;2024-02-21T00:18:23;100222.75;;;6.60;100.00
41898;BME280;27576;53.366;-1.498;2024-02-21T00:20:48;100229.91;;;6.70;100.00
41898;BME280;27576;53.366;-1.498;2024-02-21T00:23:14;100216.84;;;6.64;100.00
41898;BME280;27576;53.366;-1.498;2024-02-21T00:25:39;100230.84;;;6.74;100.00
41898;BME280;27576;53.366;-1.498;2024-02-21T00:28:05;100213.59;;;6.71;100.00
41898;BME280;27576;53.366;-1.498;2024-02-21T00:30:31;100212.16;;;6.81;100.00
41898;BME280;27576;53.366;-1.498;2024-02-21T00:32:57;100248.03;;;7.08;100.00
41898;BME280;27576;53.366;-1.498;2024-02-21T00:35:22;100195.00;;;6.81;100.00
41898;BME280;27576;53.366;-1.498;2024-02-21T00:37:48;100202.94;;;6.91;100.00
41898;BME280;27576;53.366;-1.498;2024-02-21T00:40:13;100254.44;;;7.25;100.00
41898;BME280;27576;53.366;-1.498;2024-02-21T00:42:45;100240.78;;;7.29;100.00
41898;BME280;27576;53.366;-1.498;2024-02-21T00:45:11;100213.81;;;7.15;100.00
41898;BME280;27576;53.366;-1.498;2024-02-21T00:47:36;100231.31;;;7.28;100.00
41898;BME280;27576;53.366;-1.498;2024-02-21T00:50:02;100230.50;;;7.31;100.00
41898;BME280;27576;53.366;-1.498;2024-02-21T00:52:27;100207.16;;;7.23;100.00
41898;BME280;27576;53.366;-1.498;2024-02-21T00:54:53;100220.16;;;7.28;100.00
41898;BME280;27576;53.366;-1.498;2024-02-21T00:57:18;100187.19;;;7.14;100.00
41898;BME280;27576;53.366;-1.498;2024-02-21T00:59:44;100206.31;;;7.24;100.00
41898;BME280;27576;53.366;-1.498;2024-02-21T01:02:09;100228.09;;;7.38;100.00
41898;BME280;27576;53.366;-1.498;2024-02-21T01:04:35;100203.91;;;7.32;100.00
41898;BME280;27576;53.366;-1.498;2024-02-21T01:07:00;100208.41;;;7.41;100.00
41898;BME280;27576;53.366;-1.498;2024-02-21T01:09:26;100172.84;;;7.26;100.00
41898;BME280;27576;53.366;-1.498;2024-02-21T01:11:51;100192.16;;;7.45;100.00
41898;BME280;27576;53.366;-1.498;2024-02-21T01:14:16;100170.47;;;7.35;100.00
41898;BME280;27576;53.366;-1.498;2024-02-21T01:16:42;100127.28;;;7.23;100.00
41898;BME280;27576;53.366;-1.498;2024-02-21T01:19:08;100147.97;;;7.28;100.00
41898;BME280;27576;53.366;-1.498;2024-02-21T01:21:33;100133.38;;;7.28;100.00
41898;BME280;27576;53.366;-1.498;2024-02-21T01:23:58;100149.25;;;7.47;100.00
41898;BME280;27576;53.366;-1.498;2024-02-21T01:26:24;100139.06;;;7.53;100.00
41898;BME280;27576;53.366;-1.498;2024-02-21T01:28:49;100130.38;;;7.48;100.00
41898;BME280;27576;53.366;-1.498;2024-02-21T01:31:15;100139.13;;;7.56;100.00
41898;BME280;27576;53.366;-1.498;2024-02-21T01:33:41;100134.84;;;7.58;100.00
41898;BME280;27576;53.366;-1.498;2024-02-21T01:36:06;100116.56;;;7.46;100.00
41898;BME280;27576;53.366;-1.498;2024-02-21T01:38:32;100117.53;;;7.51;100.00
41898;BME280;27576;53.366;-1.498;2024-02-21T01:40:58;100089.81;;;7.39;100.00
41898;BME280;27576;53.366;-1.498;2024-02-21T01:43:23;100101.47;;;7.64;100.00
41898;BME280;27576;53.366;-1.498;2024-02-21T01:45:51;100086.00;;;7.64;100.00
41898;BME280;27576;53.366;-1.498;2024-02-21T01:48:18;100044.50;;;7.52;100.00
41898;BME280;27576;53.366;-1.498;2024-02-21T01:50:45;100036.69;;;7.49;100.00
41898;BME280;27576;53.366;-1.498;2024-02-21T01:53:11;100042.00;;;7.56;100.00
41898;BME280;27576;53.366;-1.498;2024-02-21T01:55:44;100032.47;;;7.51;100.00
41898;BME280;27576;53.366;-1.498;2024-02-21T01:58:09;100045.44;;;7.55;100.00
41898;BME280;27576;53.366;-1.498;2024-02-21T02:00:36;100050.75;;;7.63;100.00
41898;BME280;27576;53.366;-1.498;2024-02-21T02:03:02;100030.78;;;7.54;100.00
41898;BME280;27576;53.366;-1.498;2024-02-21T02:05:29;100048.25;;;7.69;100.00
41898;BME280;27576;53.366;-1.498;2024-02-21T02:07:54;100006.69;;;7.51;100.00
41898;BME280;27576;53.366;-1.498;2024-02-21T02:10:19;100008.47;;;7.55;100.00
41898;BME280;27576;53.366;-1.498;2024-02-21T02:12:45;99989.28;;;7.41;100.00
41898;BME280;27576;53.366;-1.498;2024-02-21T02:15:10;100024.91;;;7.61;100.00
41898;BME280;27576;53.366;-1.498;2024-02-21T02:17:36;100023.34;;;7.70;100.00
41898;BME280;27576;53.366;-1.498;2024-02-21T02:20:01;100014.59;;;7.61;100.00
41898;BME280;27576;53.366;-1.498;2024-02-21T02:22:32;99986.00;;;7.48;100.00
41898;BME280;27576;53.366;-1.498;2024-02-21T02:25:01;99987.09;;;7.62;100.00
41898;BME280;27576;53.366;-1.498;2024-02-21T02:27:26;99994.00;;;7.63;100.00
41898;BME280;27576;53.366;-1.498;2024-02-21T02:29:52;99989.78;;;7.68;100.00
41898;BME280;27576;53.366;-1.498;2024-02-21T02:32:17;99975.03;;;7.61;100.00
41898;BME280;27576;53.366;-1.498;2024-02-21T02:34:43;99975.09;;;7.64;100.00
41898;BME280;27576;53.366;-1.498;2024-02-21T02:37:08;99979.47;;;7.68;100.00
41898;BME280;27576;53.366;-1.498;2024-02-21T02:39:34;99944.84;;;7.54;100.00
41898;BME280;27576;53.366;-1.498;2024-02-21T02:41:59;99937.94;;;7.51;100.00
41898;BME280;27576;53.366;-1.498;2024-02-21T02:44:25;99931.13;;;7.55;100.00
41898;BME280;27576;53.366;-1.498;2024-02-21T02:46:50;99951.22;;;7.74;100.00
41898;BME280;27576;53.366;-1.498;2024-02-21T02:49:15;99948.59;;;7.73;100.00
41898;BME280;27576;53.366;-1.498;2024-02-21T02:51:42;99940.06;;;7.75;100.00
41898;BME280;27576;53.366;-1.498;2024-02-21T02:54:08;99922.75;;;7.68;100.00
41898;BME280;27576;53.366;-1.498;2024-02-21T02:56:33;99905.47;;;7.64;100.00
41898;BME280;27576;53.366;-1.498;2024-02-21T02:58:59;99880.50;;;7.60;100.00
41898;BME280;27576;53.366;-1.498;2024-02-21T03:01:24;99887.50;;;7.70;100.00
41898;BME280;27576;53.366;-1.498;2024-02-21T03:03:50;99880.69;;;7.72;100.00
41898;BME280;27576;53.366;-1.498;2024-02-21T03:06:15;99886.81;;;7.80;100.00
41898;BME280;27576;53.366;-1.498;2024-02-21T03:08:40;99866.13;;;7.74;100.00
41898;BME280;27576;53.366;-1.498;2024-02-21T03:11:06;99829.81;;;7.62;100.00
41898;BME280;27576;53.366;-1.498;2024-02-21T03:13:31;99813.38;;;7.55;100.00
41898;BME280;27576;53.366;-1.498;2024-02-21T03:15:57;99823.03;;;7.67;100.00
41898;BME280;27576;53.366;-1.498;2024-02-21T03:18:22;99838.69;;;7.79;100.00
41898;BME280;27576;53.366;-1.498;2024-02-21T03:20:48;99843.09;;;7.86;100.00
41898;BME280;27576;53.366;-1.498;2024-02-21T03:23:13;99804.19;;;7.73;100.00
41898;BME280;27576;53.366;-1.498;2024-02-21T03:25:39;99793.84;;;7.71;100.00
41898;BME280;27576;53.366;-1.498;2024-02-21T03:28:04;99793.94;;;7.77;100.00
41898;BME280;27576;53.366;-1.498;2024-02-21T03:30:30;99770.66;;;7.73;100.00
41898;BME280;27576;53.366;-1.498;2024-02-21T03:32:55;99769.00;;;7.78;100.00
41898;BME280;27576;53.366;-1.498;2024-02-21T03:35:20;99762.97;;;7.76;100.00
41898;BME280;27576;53.366;-1.498;2024-02-21T03:37:46;99717.19;;;7.59;100.00
41898;BME280;27576;53.366;-1.498;2024-02-21T03:40:11;99747.53;;;7.80;100.00
41898;BME280;27576;53.366;-1.498;2024-02-21T03:42:37;99757.16;;;7.91;100.00
41898;BME280;27576;53.366;-1.498;2024-02-21T03:45:03;99702.66;;;7.66;100.00
41898;BME280;27576;53.366;-1.498;2024-02-21T03:47:29;99706.19;;;7.71;100.00
41898;BME280;27576;53.366;-1.498;2024-02-21T03:49:54;99705.38;;;7.75;100.00
41898;BME280;27576;53.366;-1.498;2024-02-21T03:52:20;99693.31;;;7.74;100.00
41898;BME280;27576;53.366;-1.498;2024-02-21T03:54:45;99703.81;;;7.90;100.00
41898;BME280;27576;53.366;-1.498;2024-02-21T03:57:11;99664.81;;;7.65;100.00
41898;BME280;27576;53.366;-1.498;2024-02-21T03:59:36;99669.22;;;7.72;100.00
41898;BME280;27576;53.366;-1.498;2024-02-21T04:02:04;99695.25;;;7.91;100.00
41898;BME280;27576;53.366;-1.498;2024-02-21T04:04:34;99648.50;;;7.65;100.00
41898;BME280;27576;53.366;-1.498;2024-02-21T04:06:59;99655.50;;;7.76;100.00
41898;BME280;27576;53.366;-1.498;2024-02-21T04:09:24;99661.63;;;7.84;100.00
41898;BME280;27576;53.366;-1.498;2024-02-21T04:11:50;99666.00;;;7.90;100.00
41898;BME280;27576;53.366;-1.498;2024-02-21T04:14:15;99668.59;;;7.92;100.00
41898;BME280;27576;53.366;-1.498;2024-02-21T04:16:40;99658.28;;;7.92;100.00
41898;BME280;27576;53.366;-1.498;2024-02-21T04:19:07;99642.72;;;7.85;100.00
41898;BME280;27576;53.366;-1.498;2024-02-21T04:21:33;99621.13;;;7.74;100.00
41898;BME280;27576;53.366;-1.498;2024-02-21T04:23:58;99622.88;;;7.78;100.00
41898;BME280;27576;53.366;-1.498;2024-02-21T04:26:23;99628.94;;;7.83;100.00
41898;BME280;27576;53.366;-1.498;2024-02-21T04:28:49;99603.94;;;7.76;100.00
41898;BME280;27576;53.366;-1.498;2024-02-21T04:31:14;99590.09;;;7.70;100.00
41898;BME280;27576;53.366;-1.498;2024-02-21T04:33:40;99609.16;;;7.82;100.00
41898;BME280;27576;53.366;-1.498;2024-02-21T04:36:05;99583.22;;;7.70;100.00
41898;BME280;27576;53.366;-1.498;2024-02-21T04:38:31;99586.78;;;7.78;100.00
41898;BME280;27576;53.366;-1.498;2024-02-21T04:40:56;99584.16;;;7.75;100.00
41898;BME280;27576;53.366;-1.498;2024-02-21T04:43:24;99568.59;;;7.69;100.00
41898;BME280;27576;53.366;-1.498;2024-02-21T04:45:50;99602.34;;;7.86;100.00
41898;BME280;27576;53.366;-1.498;2024-02-21T04:48:16;99555.78;;;7.75;100.00
41898;BME280;27576;53.366;-1.498;2024-02-21T04:50:41;99567.00;;;7.79;100.00
41898;BME280;27576;53.366;-1.498;2024-02-21T04:53:07;99564.44;;;7.79;100.00
41898;BME280;27576;53.366;-1.498;2024-02-21T04:55:33;99547.94;;;7.66;100.00
41898;BME280;27576;53.366;-1.498;2024-02-21T04:57:58;99548.81;;;7.67;100.00
41898;BME280;27576;53.366;-1.498;2024-02-21T05:00:25;99550.63;;;7.77;100.00
41898;BME280;27576;53.366;-1.498;2024-02-21T05:02:51;99530.78;;;7.68;100.00
41898;BME280;27576;53.366;-1.498;2024-02-21T05:05:16;99498.00;;;7.55;100.00
41898;BME280;27576;53.366;-1.498;2024-02-21T05:07:42;99427.22;;;7.24;100.00
41898;BME280;27576;53.366;-1.498;2024-02-21T05:10:07;99498.97;;;7.68;100.00
41898;BME280;27576;53.366;-1.498;2024-02-21T05:12:33;99457.56;;;7.51;100.00
41898;BME280;27576;53.366;-1.498;2024-02-21T05:14:59;99487.88;;;7.76;100.00
41898;BME280;27576;53.366;-1.498;2024-02-21T05:17:24;99493.03;;;7.76;100.00
41898;BME280;27576;53.366;-1.498;2024-02-21T05:19:49;99490.47;;;7.76;100.00
41898;BME280;27576;53.366;-1.498;2024-02-21T05:22:15;99462.09;;;7.76;100.00
41898;BME280;27576;53.366;-1.498;2024-02-21T05:24:40;99366.22;;;7.20;100.00
41898;BME280;27576;53.366;-1.498;2024-02-21T05:27:05;99383.50;;;7.34;100.00
41898;BME280;27576;53.366;-1.498;2024-02-21T05:29:31;99417.25;;;7.59;100.00
41898;BME280;27576;53.366;-1.498;2024-02-21T05:31:57;99431.97;;;7.71;100.00
41898;BME280;27576;53.366;-1.498;2024-02-21T05:34:22;99387.06;;;7.47;100.00
41898;BME280;27576;53.366;-1.498;2024-02-21T05:36:48;99410.44;;;7.67;100.00
41898;BME280;27576;53.366;-1.498;2024-02-21T05:39:17;99406.22;;;7.75;100.00
41898;BME280;27576;53.366;-1.498;2024-02-21T05:41:42;99363.94;;;7.55;100.00
41898;BME280;27576;53.366;-1.498;2024-02-21T05:44:08;99387.28;;;7.72;100.00
41898;BME280;27576;53.366;-1.498;2024-02-21T05:46:33;99349.31;;;7.51;100.00
41898;BME280;27576;53.366;-1.498;2024-02-21T05:48:59;99370.91;;;7.67;100.00
41898;BME280;27576;53.366;-1.498;2024-02-21T05:51:24;99329.53;;;7.51;100.00
41898;BME280;27576;53.366;-1.498;2024-02-21T05:53:50;99322.66;;;7.52;100.00
41898;BME280;27576;53.366;-1.498;2024-02-21T05:56:15;99336.47;;;7.58;100.00
41898;BME280;27576;53.366;-1.498;2024-02-21T05:58:43;99333.00;;;7.58;100.00
41898;BME280;27576;53.366;-1.498;2024-02-21T06:01:08;99349.47;;;7.72;100.00
41898;BME280;27576;53.366;-1.498;2024-02-21T06:03:34;99300.31;;;7.52;100.00
41898;BME280;27576;53.366;-1.498;2024-02-21T06:06:00;99317.59;;;7.64;100.00
41898;BME280;27576;53.366;-1.498;2024-02-21T06:08:26;99290.91;;;7.56;100.00
41898;BME280;27576;53.366;-1.498;2024-02-21T06:10:51;99300.38;;;7.60;100.00
41898;BME280;27576;53.366;-1.498;2024-02-21T06:13:20;99321.91;;;7.65;100.00
41898;BME280;27576;53.366;-1.498;2024-02-21T06:15:46;99285.69;;;7.47;100.00
41898;BME280;27576;53.366;-1.498;2024-02-21T06:18:12;99297.84;;;7.65;100.00
41898;BME280;27576;53.366;-1.498;2024-02-21T06:20:38;99283.16;;;7.56;100.00
41898;BME280;27576;53.366;-1.498;2024-02-21T06:23:06;99283.97;;;7.50;100.00
41898;BME280;27576;53.366;-1.498;2024-02-21T06:25:31;99265.88;;;7.43;100.00
41898;BME280;27576;53.366;-1.498;2024-02-21T06:27:56;99250.31;;;7.30;100.00
41898;BME280;27576;53.366;-1.498;2024-02-21T06:30:22;99239.97;;;7.21;100.00
41898;BME280;27576;53.366;-1.498;2024-02-21T06:32:47;99283.13;;;7.47;100.00
41898;BME280;27576;53.366;-1.498;2024-02-21T06:35:13;99249.47;;;7.28;100.00
41898;BME280;27576;53.366;-1.498;2024-02-21T06:37:38;99215.88;;;7.16;100.00
41898;BME280;27576;53.366;-1.498;2024-02-21T06:40:04;99234.75;;;7.15;100.00
41898;BME280;27576;53.366;-1.498;2024-02-21T06:42:30;99231.34;;;7.16;100.00
41898;BME280;27576;53.366;-1.498;2024-02-21T06:44:55;99236.53;;;7.21;100.00
41898;BME280;27576;53.366;-1.498;2024-02-21T06:47:21;99191.69;;;6.99;100.00
41898;BME280;27576;53.366;-1.498;2024-02-21T06:49:50;99221.06;;;7.22;100.00
41898;BME280;27576;53.366;-1.498;2024-02-21T06:52:19;99221.00;;;7.13;100.00
41898;BME280;27576;53.366;-1.498;2024-02-21T06:54:46;99175.25;;;6.81;100.00
41898;BME280;27576;53.366;-1.498;2024-02-21T06:57:12;99183.03;;;6.87;100.00
41898;BME280;27576;53.366;-1.498;2024-02-21T06:59:38;99220.09;;;7.05;100.00
41898;BME280;27576;53.366;-1.498;2024-02-21T07:02:04;99204.56;;;6.99;100.00
41898;BME280;27576;53.366;-1.498;2024-02-21T07:04:29;99166.63;;;6.73;100.00
41898;BME280;27576;53.366;-1.498;2024-02-21T07:06:55;99177.88;;;6.84;100.00
41898;BME280;27576;53.366;-1.498;2024-02-21T07:09:20;99141.63;;;6.63;100.00
41898;BME280;27576;53.366;-1.498;2024-02-21T07:11:45;99181.28;;;6.83;100.00
41898;BME280;27576;53.366;-1.498;2024-02-21T07:14:11;99129.56;;;6.53;100.00
41898;BME280;27576;53.366;-1.498;2024-02-21T07:16:36;99154.63;;;6.77;100.00
41898;BME280;27576;53.366;-1.498;2024-02-21T07:19:02;99116.69;;;6.54;100.00
41898;BME280;27576;53.366;-1.498;2024-02-21T07:21:28;99139.09;;;6.68;100.00
41898;BME280;27576;53.366;-1.498;2024-02-21T07:23:53;99125.34;;;6.62;100.00
41898;BME280;27576;53.366;-1.498;2024-02-21T07:26:19;99144.31;;;6.72;100.00
41898;BME280;27576;53.366;-1.498;2024-02-21T07:28:44;99120.22;;;6.67;100.00
41898;BME280;27576;53.366;-1.498;2024-02-21T07:31:09;99099.56;;;6.58;100.00
41898;BME280;27576;53.366;-1.498;2024-02-21T07:33:35;99078.09;;;6.56;100.00
41898;BME280;27576;53.366;-1.498;2024-02-21T07:36:01;99097.91;;;6.66;100.00
41898;BME280;27576;53.366;-1.498;2024-02-21T07:38:26;99076.38;;;6.55;100.00
41898;BME280;27576;53.366;-1.498;2024-02-21T07:40:51;99081.59;;;6.62;100.00
41898;BME280;27576;53.366;-1.498;2024-02-21T07:43:17;99086.78;;;6.72;100.00
41898;BME280;27576;53.366;-1.498;2024-02-21T07:45:42;99064.41;;;6.60;100.00
41898;BME280;27576;53.366;-1.498;2024-02-21T07:48:08;99057.56;;;6.63;100.00
41898;BME280;27576;53.366;-1.498;2024-02-21T07:50:33;99063.63;;;6.70;100.00
41898;BME280;27576;53.366;-1.498;2024-02-21T07:52:59;99050.75;;;6.70;100.00
41898;BME280;27576;53.366;-1.498;2024-02-21T07:55:24;99042.13;;;6.62;100.00
41898;BME280;27576;53.366;-1.498;2024-02-21T07:57:50;99028.38;;;6.57;100.00
41898;BME280;27576;53.366;-1.498;2024-02-21T08:00:16;99032.69;;;6.64;100.00
41898;BME280;27576;53.366;-1.498;2024-02-21T08:02:54;99022.44;;;6.72;100.00
41898;BME280;27576;53.366;-1.498;2024-02-21T08:05:19;99026.75;;;6.79;100.00
41898;BME280;27576;53.366;-1.498;2024-02-21T08:07:44;99021.59;;;6.74;100.00
41898;BME280;27576;53.366;-1.498;2024-02-21T08:10:10;99012.19;;;6.82;100.00
41898;BME280;27576;53.366;-1.498;2024-02-21T08:12:35;99003.63;;;6.83;100.00
41898;BME280;27576;53.366;-1.498;2024-02-21T08:15:02;98992.50;;;6.84;100.00
41898;BME280;27576;53.366;-1.498;2024-02-21T08:17:33;98975.31;;;6.80;100.00
41898;BME280;27576;53.366;-1.498;2024-02-21T08:19:58;98971.88;;;6.87;100.00
41898;BME280;27576;53.366;-1.498;2024-02-21T08:22:24;98933.19;;;6.71;100.00
41898;BME280;27576;53.366;-1.498;2024-02-21T08:24:49;98954.72;;;6.91;100.00
41898;BME280;27576;53.366;-1.498;2024-02-21T08:27:15;98949.59;;;6.93;100.00
41898;BME280;27576;53.366;-1.498;2024-02-21T08:29:40;98959.03;;;6.95;100.00
41898;BME280;27576;53.366;-1.498;2024-02-21T08:32:06;98931.56;;;6.91;100.00
41898;BME280;27576;53.366;-1.498;2024-02-21T08:34:31;98903.22;;;6.80;100.00
41898;BME280;27576;53.366;-1.498;2024-02-21T08:36:59;98916.13;;;6.97;100.00
41898;BME280;27576;53.366;-1.498;2024-02-21T08:39:24;98906.72;;;7.01;100.00
41898;BME280;27576;53.366;-1.498;2024-02-21T08:41:50;98856.00;;;6.81;100.00
41898;BME280;27576;53.366;-1.498;2024-02-21T08:44:16;98863.75;;;6.91;100.00
41898;BME280;27576;53.366;-1.498;2024-02-21T08:46:41;98856.91;;;6.96;100.00
41898;BME280;27576;53.366;-1.498;2024-02-21T08:49:09;98865.50;;;7.01;100.00
41898;BME280;27576;53.366;-1.498;2024-02-21T08:51:35;98857.78;;;6.96;100.00
41898;BME280;27576;53.366;-1.498;2024-02-21T08:54:00;98849.19;;;7.00;100.00
41898;BME280;27576;53.366;-1.498;2024-02-21T08:56:26;98790.78;;;6.75;100.00
41898;BME280;27576;53.366;-1.498;2024-02-21T08:58:51;98838.03;;;7.09;100.00
41898;BME280;27576;53.366;-1.498;2024-02-21T09:01:17;98836.34;;;7.17;100.00
41898;BME280;27576;53.366;-1.498;2024-02-21T09:03:42;98832.03;;;7.18;100.00
41898;BME280;27576;53.366;-1.498;2024-02-21T09:06:09;98796.81;;;7.06;100.00
41898;BME280;27576;53.366;-1.498;2024-02-21T09:08:35;98810.59;;;7.20;100.00
41898;BME280;27576;53.366;-1.498;2024-02-21T09:11:01;98791.69;;;7.18;100.00
41898;BME280;27576;53.366;-1.498;2024-02-21T09:13:27;98757.34;;;7.05;100.00
41898;BME280;27576;53.366;-1.498;2024-02-21T09:15:54;98773.66;;;7.20;100.00
41898;BME280;27576;53.366;-1.498;2024-02-21T09:18:19;98774.53;;;7.25;100.00
41898;BME280;27576;53.366;-1.498;2024-02-21T09:20:45;98765.94;;;7.24;100.00
41898;BME280;27576;53.366;-1.498;2024-02-21T09:23:11;98756.50;;;7.23;100.00
41898;BME280;27576;53.366;-1.498;2024-02-21T09:25:37;98729.00;;;7.10;100.00
41898;BME280;27576;53.366;-1.498;2024-02-21T09:28:02;98741.00;;;7.26;100.00
41898;BME280;27576;53.366;-1.498;2024-02-21T09:30:28;98711.84;;;7.13;100.00
41898;BME280;27576;53.366;-1.498;2024-02-21T09:32:54;98734.13;;;7.30;100.00
41898;BME280;27576;53.366;-1.498;2024-02-21T09:35:20;98669.78;;;7.08;100.00
41898;BME280;27576;53.366;-1.498;2024-02-21T09:37:49;98704.94;;;7.34;100.00
41898;BME280;27576;53.366;-1.498;2024-02-21T09:40:18;98674.88;;;7.30;100.00
41898;BME280;27576;53.366;-1.498;2024-02-21T09:42:43;98650.03;;;7.20;100.00
41898;BME280;27576;53.366;-1.498;2024-02-21T09:45:23;98668.00;;;7.36;100.00
41898;BME280;27576;53.366;-1.498;2024-02-21T09:50:24;98647.41;;;7.40;100.00
41898;BME280;27576;53.366;-1.498;2024-02-21T09:52:53;98637.97;;;7.32;100.00
41898;BME280;27576;53.366;-1.498;2024-02-21T09:55:20;98625.03;;;7.42;100.00
41898;BME280;27576;53.366;-1.498;2024-02-21T09:57:46;98618.16;;;7.42;100.00
41898;BME280;27576;53.366;-1.498;2024-02-21T10:00:12;98599.28;;;7.42;100.00
41898;BME280;27576;53.366;-1.498;2024-02-21T10:02:47;98577.81;;;7.41;100.00
41898;BME280;27576;53.366;-1.498;2024-02-21T10:05:13;98558.09;;;7.29;100.00
41898;BME280;27576;53.366;-1.498;2024-02-21T10:07:38;98581.25;;;7.40;100.00
41898;BME280;27576;53.366;-1.498;2024-02-21T10:10:05;98571.75;;;7.50;100.00
41898;BME280;27576;53.366;-1.498;2024-02-21T10:12:31;98566.59;;;7.53;100.00
41898;BME280;27576;53.366;-1.498;2024-02-21T10:15:04;98567.44;;;7.53;100.00
41898;BME280;27576;53.366;-1.498;2024-02-21T10:17:32;98549.41;;;7.52;100.00
41898;BME280;27576;53.366;-1.498;2024-02-21T10:20:10;98520.28;;;7.34;100.00
41898;BME280;27576;53.366;-1.498;2024-02-21T10:22:37;98485.97;;;7.29;100.00
41898;BME280;27576;53.366;-1.498;2024-02-21T10:25:11;98533.06;;;7.54;100.00
41898;BME280;27576;53.366;-1.498;2024-02-21T10:27:38;98522.72;;;7.63;100.00
41898;BME280;27576;53.366;-1.498;2024-02-21T10:30:13;98454.09;;;7.47;100.00
41898;BME280;27576;53.366;-1.498;2024-02-21T10:32:53;98448.09;;;7.47;100.00
41898;BME280;27576;53.366;-1.498;2024-02-21T10:35:33;98479.69;;;7.70;100.00
41898;BME280;27576;53.366;-1.498;2024-02-21T10:37:59;98478.00;;;7.71;100.00
41898;BME280;27576;53.366;-1.498;2024-02-21T10:40:27;98470.28;;;7.68;100.00
41898;BME280;27576;53.366;-1.498;2024-02-21T10:43:02;98441.09;;;7.64;100.00
41898;BME280;27576;53.366;-1.498;2024-02-21T10:45:36;98471.94;;;7.76;100.00
41898;BME280;27576;53.366;-1.498;2024-02-21T10:48:11;98458.16;;;7.77;100.00
41898;BME280;27576;53.366;-1.498;2024-02-21T10:50:53;98460.75;;;7.79;100.00
41898;BME280;27576;53.366;-1.498;2024-02-21T10:53:44;98451.28;;;7.79;100.00
41898;BME280;27576;53.366;-1.498;2024-02-21T10:56:30;98440.09;;;7.80;100.00
41898;BME280;27576;53.366;-1.498;2024-02-21T10:59:00;98443.53;;;7.82;100.00
41898;BME280;27576;53.366;-1.498;2024-02-21T11:01:26;98401.53;;;7.65;100.00
41898;BME280;27576;53.366;-1.498;2024-02-21T11:03:56;98419.44;;;7.85;100.00
41898;BME280;27576;53.366;-1.498;2024-02-21T11:06:22;98403.97;;;7.86;100.00
41898;BME280;27576;53.366;-1.498;2024-02-21T11:09:02;98412.56;;;7.87;100.00
41898;BME280;27576;53.366;-1.498;2024-02-21T11:11:28;98393.72;;;7.79;100.00
41898;BME280;27576;53.366;-1.498;2024-02-21T11:14:05;98387.63;;;7.87;100.00
41898;BME280;27576;53.366;-1.498;2024-02-21T11:16:41;98355.06;;;7.76;100.00
41898;BME280;27576;53.366;-1.498;2024-02-21T11:19:08;98319.97;;;7.62;100.00
41898;BME280;27576;53.366;-1.498;2024-02-21T11:21:35;98331.91;;;7.70;100.00
41898;BME280;27576;53.366;-1.498;2024-02-21T11:24:02;98360.97;;;7.85;100.00
41898;BME280;27576;53.366;-1.498;2024-02-21T11:26:29;98363.50;;;7.92;100.00
41898;BME280;27576;53.366;-1.498;2024-02-21T11:29:04;98334.41;;;7.77;100.00
41898;BME280;27576;53.366;-1.498;2024-02-21T11:31:43;98336.94;;;7.86;100.00
41898;BME280;27576;53.366;-1.498;2024-02-21T11:34:11;98300.91;;;7.77;100.00
41898;BME280;27576;53.366;-1.498;2024-02-21T11:36:52;98328.22;;;7.97;100.00
41898;BME280;27576;53.366;-1.498;2024-02-21T11:39:26;98310.19;;;7.94;100.00
41898;BME280;27576;53.366;-1.498;2024-02-21T11:42:06;98311.88;;;7.98;100.00
41898;BME280;27576;53.366;-1.498;2024-02-21T11:44:34;98310.94;;;8.05;100.00
41898;BME280;27576;53.366;-1.498;2024-02-21T11:46:59;98284.34;;;8.00;100.00
41898;BME280;27576;53.366;-1.498;2024-02-21T11:49:26;98256.09;;;7.89;100.00
41898;BME280;27576;53.366;-1.498;2024-02-21T11:51:58;98270.41;;;8.13;100.00
41898;BME280;27576;53.366;-1.498;2024-02-21T11:54:24;98260.19;;;8.07;100.00
41898;BME280;27576;53.366;-1.498;2024-02-21T11:56:49;98266.94;;;8.17;100.00
41898;BME280;27576;53.366;-1.498;2024-02-21T11:59:15;98233.56;;;8.06;100.00
41898;BME280;27576;53.366;-1.498;2024-02-21T12:01:40;98250.53;;;8.21;100.00
41898;BME280;27576;53.366;-1.498;2024-02-21T12:04:06;98239.41;;;8.19;100.00
41898;BME280;27576;53.366;-1.498;2024-02-21T12:06:32;98211.97;;;8.12;100.00
41898;BME280;27576;53.366;-1.498;2024-02-21T12:08:58;98204.91;;;8.26;100.00
41898;BME280;27576;53.366;-1.498;2024-02-21T12:11:23;98194.56;;;8.29;100.00
41898;BME280;27576;53.366;-1.498;2024-02-21T12:14:02;98166.97;;;8.34;100.00
41898;BME280;27576;53.366;-1.498;2024-02-21T12:16:30;98184.16;;;8.35;100.00
41898;BME280;27576;53.366;-1.498;2024-02-21T12:18:56;98114.81;;;8.14;100.00
41898;BME280;27576;53.366;-1.498;2024-02-21T12:21:26;98115.53;;;8.22;100.00
41898;BME280;27576;53.366;-1.498;2024-02-21T12:23:54;98108.66;;;8.21;100.00
41898;BME280;27576;53.366;-1.498;2024-02-21T12:26:19;98107.66;;;8.31;100.00
41898;BME280;27576;53.366;-1.498;2024-02-21T12:28:45;98112.66;;;8.44;100.00
41898;BME280;27576;53.366;-1.498;2024-02-21T12:31:10;98098.22;;;8.30;100.00
41898;BME280;27576;53.366;-1.498;2024-02-21T12:33:36;98085.28;;;8.33;100.00
41898;BME280;27576;53.366;-1.498;2024-02-21T12:36:01;98109.03;;;8.55;100.00
41898;BME280;27576;53.366;-1.498;2024-02-21T12:38:29;98049.97;;;8.35;100.00
41898;BME280;27576;53.366;-1.498;2024-02-21T12:40:54;98059.19;;;8.53;100.00
41898;BME280;27576;53.366;-1.498;2024-02-21T12:43:20;98075.25;;;8.68;100.00
41898;BME280;27576;53.366;-1.498;2024-02-21T12:45:47;98043.69;;;8.52;100.00
41898;BME280;27576;53.366;-1.498;2024-02-21T12:48:13;98041.91;;;8.57;100.00